createdAt,value
2019-05-09T00:10:38.041Z,97442.00
2019-05-09T00:21:04.404Z,97438.00
2019-05-09T00:31:48.817Z,97433.00
2019-05-09T00:42:27.902Z,97436.00
2019-05-09T00:53:13.782Z,97433.00
2019-05-09T01:03:53.894Z,97450.00
2019-05-09T01:14:36.904Z,97466.00
2019-05-09T01:25:14.063Z,97502.00
2019-05-09T01:35:50.089Z,97518.00
2019-05-09T01:46:30.755Z,97501.00
2019-05-09T01:57:09.974Z,97502.00
2019-05-09T02:07:48.152Z,97479.00
2019-05-09T02:18:24.032Z,97467.00
2019-05-09T02:29:07.738Z,97482.00
2019-05-09T02:39:53.285Z,97458.00
2019-05-09T02:50:32.955Z,97441.00
2019-05-09T03:01:18.938Z,97436.00
2019-05-09T03:12:21.010Z,97413.00
2019-05-09T03:22:48.661Z,97422.00
2019-05-09T03:33:30.791Z,97429.00
2019-05-09T03:44:14.068Z,97431.00
2019-05-09T03:54:54.799Z,97462.00
2019-05-09T04:05:38.881Z,97477.00
2019-05-09T04:16:24.003Z,97470.00
2019-05-09T04:26:58.198Z,97469.00
2019-05-09T04:37:42.071Z,97443.00
2019-05-09T04:48:24.098Z,97315.00
2019-05-09T04:59:08.978Z,96735.00
2019-05-09T05:09:48.471Z,97005.00
2019-05-09T05:20:32.823Z,96334.00
2019-05-09T05:31:18.186Z,96101.00
2019-05-09T05:41:57.634Z,96747.00
2019-05-09T05:52:37.521Z,96823.00
2019-05-09T06:03:21.008Z,95811.00
2019-05-09T06:14:11.797Z,95497.00
2019-05-09T06:24:44.917Z,96282.00
2019-05-09T06:35:22.050Z,96732.00
2019-05-09T06:46:09.592Z,95974.00
2019-05-09T06:56:44.893Z,96664.00
2019-05-09T07:07:27.954Z,96763.00
2019-05-09T07:18:07.966Z,96834.00
2019-05-09T07:28:42.025Z,96741.00
2019-05-09T07:39:24.923Z,96649.00
2019-05-09T07:50:08.762Z,96586.00
2019-05-09T08:00:50.206Z,96584.00
2019-05-09T08:11:28.261Z,96544.00
2019-05-09T08:22:08.541Z,96530.00
2019-05-09T08:32:51.142Z,96482.00
2019-05-09T08:43:37.619Z,96490.00
2019-05-09T08:54:14.363Z,96607.00
2019-05-09T09:04:54.072Z,96641.00
2019-05-09T09:15:58.099Z,96589.00
2019-05-09T09:58:15.009Z,96314.00
2019-05-09T10:08:58.189Z,96248.00
2019-05-09T10:19:40.177Z,96175.00
2019-05-09T10:30:23.322Z,96030.00
2019-05-09T10:41:10.897Z,96164.00
2019-05-09T10:51:43.180Z,96011.00
2019-05-09T11:02:27.978Z,96166.00
2019-05-09T11:13:08.000Z,96198.00
2019-05-09T11:23:52.027Z,96104.00
2019-05-09T11:34:37.637Z,96066.00
2019-05-09T11:45:20.076Z,96018.00
2019-05-09T11:56:02.997Z,96027.00
2019-05-09T12:06:41.086Z,96100.00
2019-05-09T12:17:25.723Z,96216.00
2019-05-09T12:28:08.260Z,96223.00
2019-05-09T12:38:50.438Z,96231.00
2019-05-09T12:49:34.166Z,96211.00
2019-05-09T13:00:20.091Z,96157.00
2019-05-09T13:11:02.686Z,96233.00
2019-05-09T13:21:44.156Z,96174.00
2019-05-09T13:32:28.127Z,96135.00
2019-05-09T13:43:03.405Z,96119.00
2019-05-09T13:53:42.037Z,96116.00
2019-05-09T14:04:28.628Z,96047.00
2019-05-09T14:15:08.573Z,96048.00
2019-05-09T14:25:51.848Z,96020.00
2019-05-09T14:36:29.988Z,96107.00
2019-05-09T14:47:13.310Z,96109.00
2019-05-09T14:57:57.866Z,96119.00
2019-05-09T15:08:40.165Z,96118.00
2019-05-09T15:19:23.966Z,96178.00
2019-05-09T15:30:04.132Z,96151.00
2019-05-09T15:40:47.970Z,96083.00
2019-05-09T15:51:32.763Z,95918.00
2019-05-09T16:02:13.018Z,95889.00
2019-05-09T16:12:55.112Z,95946.00
2019-05-09T16:23:38.074Z,95962.00
2019-05-09T16:34:22.213Z,95784.00
2019-05-09T16:45:08.044Z,95752.00
2019-05-09T16:55:50.501Z,95891.00
2019-05-09T17:06:30.148Z,96057.00
2019-05-09T17:17:12.662Z,96115.00
2019-05-09T17:27:51.277Z,96123.00
2019-05-09T17:38:27.862Z,96125.00
2019-05-09T17:49:00.219Z,96094.00
2019-05-09T17:59:41.939Z,96147.00
2019-05-09T18:10:18.323Z,96212.00
2019-05-09T18:21:00.440Z,96247.00
2019-05-09T18:31:41.207Z,96328.00
2019-05-09T18:42:17.899Z,96408.00
2019-05-09T18:52:57.086Z,96512.00
2019-05-09T19:03:32.391Z,96890.00
2019-05-09T19:14:13.219Z,97116.00
2019-05-09T19:24:53.422Z,97155.00
2019-05-09T19:35:37.110Z,97175.00
2019-05-09T19:46:20.598Z,97192.00
2019-05-09T19:57:03.966Z,97223.00
2019-05-09T20:07:41.303Z,97274.00
2019-05-09T20:18:23.667Z,97291.00
2019-05-09T20:29:07.238Z,97315.00
2019-05-09T20:39:51.347Z,97333.00
2019-05-09T20:50:34.885Z,97376.00
2019-05-09T21:01:15.469Z,97412.00
2019-05-09T21:11:58.294Z,97423.00
2019-05-09T21:22:39.322Z,97446.00
2019-05-09T21:33:23.385Z,97456.00
2019-05-09T21:44:08.453Z,97480.00
2019-05-09T21:54:49.758Z,97493.00
2019-05-09T22:05:27.373Z,97506.00
2019-05-09T22:16:08.654Z,97517.00
2019-05-09T22:26:46.449Z,97557.00
2019-05-09T22:37:24.579Z,97602.00
2019-05-09T22:48:02.355Z,97634.00
2019-05-09T22:58:43.465Z,97654.00
2019-05-09T23:09:23.750Z,97678.00
2019-05-09T23:20:02.482Z,97725.00
2019-05-09T23:30:37.729Z,97749.00
2019-05-09T23:41:15.242Z,97816.00
2019-05-09T23:51:55.701Z,97843.00
